createdAt,value
2023-01-17T08:14:49.896Z,97.80
2023-01-17T08:17:20.413Z,98.00
2023-01-17T08:19:50.023Z,98.10
2023-01-17T08:22:16.778Z,98.10
2023-01-17T08:24:44.612Z,98.50
2023-01-17T08:27:11.356Z,98.30
2023-01-17T08:29:41.334Z,98.40
2023-01-17T08:32:08.237Z,98.50
2023-01-17T08:34:34.927Z,98.50
2023-01-17T08:37:02.814Z,98.50
2023-01-17T08:39:29.595Z,98.60
2023-01-17T08:41:57.353Z,98.70
2023-01-17T08:44:24.114Z,98.80
2023-01-17T08:46:51.087Z,98.80
2023-01-17T08:49:17.924Z,98.90
2023-01-17T08:51:44.603Z,98.90
2023-01-17T08:54:13.288Z,99.00
2023-01-17T08:56:40.244Z,98.90
2023-01-17T08:59:06.957Z,98.90
2023-01-17T09:01:40.626Z,98.90
2023-01-17T09:04:08.960Z,98.90
2023-01-17T09:06:41.237Z,98.90
2023-01-17T09:09:08.873Z,98.90
2023-01-17T09:11:35.582Z,98.90
2023-01-17T09:14:02.442Z,98.80
2023-01-17T09:16:30.246Z,98.80
2023-01-17T09:18:58.288Z,98.70
2023-01-17T09:21:26.210Z,98.60
2023-01-17T09:23:54.497Z,98.60
2023-01-17T09:26:29.484Z,98.70
2023-01-17T09:28:56.307Z,99.00
2023-01-17T09:31:23.893Z,98.70
2023-01-17T09:33:51.984Z,98.60
2023-01-17T09:36:19.597Z,98.60
2023-01-17T09:38:47.175Z,98.50
2023-01-17T09:41:27.399Z,98.50
2023-01-17T09:44:06.585Z,98.50
2023-01-17T09:46:40.393Z,98.50
2023-01-17T09:49:13.063Z,98.80
2023-01-17T09:51:40.126Z,98.40
2023-01-17T09:54:23.393Z,98.50
2023-01-17T09:57:27.345Z,98.40
2023-01-17T10:00:14.593Z,98.40
2023-01-17T10:02:53.163Z,98.40
2023-01-17T10:05:47.704Z,98.30
2023-01-17T10:08:43.522Z,98.30
2023-01-17T10:11:13.117Z,98.20
2023-01-17T10:14:14.938Z,98.30
2023-01-17T10:16:44.523Z,98.30
2023-01-17T10:19:39.139Z,98.30
2023-01-17T10:22:26.994Z,98.20
2023-01-17T10:25:08.408Z,98.10
2023-01-17T10:27:40.194Z,97.90
2023-01-17T10:30:16.654Z,97.70
2023-01-17T10:32:49.704Z,97.50
2023-01-17T10:35:37.923Z,97.40
2023-01-17T10:38:11.926Z,97.10
2023-01-17T10:40:50.199Z,96.90
2023-01-17T10:43:22.348Z,96.70
2023-01-17T10:45:53.762Z,96.70
2023-01-17T10:48:41.016Z,96.50
2023-01-17T10:51:29.349Z,96.40
2023-01-17T10:54:15.095Z,96.30
2023-01-17T10:56:42.056Z,96.30
2023-01-17T10:59:16.552Z,96.30
2023-01-17T11:01:43.568Z,96.30
2023-01-17T11:04:38.305Z,96.40
2023-01-17T11:07:19.169Z,96.40
2023-01-17T11:09:49.597Z,96.40
2023-01-17T11:12:27.769Z,96.20
2023-01-17T11:15:08.495Z,96.00
2023-01-17T11:17:48.913Z,95.80
2023-01-17T11:20:19.942Z,95.60
2023-01-17T11:23:06.310Z,95.50
2023-01-17T11:25:34.298Z,95.40
2023-01-17T11:28:22.497Z,95.30
2023-01-17T11:30:57.999Z,95.20
2023-01-17T11:33:48.016Z,95.10
2023-01-17T11:36:23.246Z,94.90
2023-01-17T11:39:05.231Z,94.60
2023-01-17T11:41:41.220Z,94.40
2023-01-17T11:44:29.198Z,94.30
2023-01-17T11:47:19.140Z,94.30
2023-01-17T11:49:49.762Z,94.20
2023-01-17T11:52:27.282Z,93.80
2023-01-17T11:54:55.303Z,93.20
2023-01-17T11:57:29.653Z,93.20
2023-01-17T12:00:15.250Z,93.10
2023-01-17T12:02:48.103Z,93.10
2023-01-17T12:05:36.514Z,92.80
2023-01-17T12:08:32.522Z,92.60
2023-01-17T12:11:02.337Z,92.30
2023-01-17T12:14:03.370Z,92.20
2023-01-17T12:16:38.984Z,91.80
2023-01-17T12:19:34.291Z,91.80
2023-01-17T12:22:25.676Z,91.70
2023-01-17T12:25:24.520Z,91.50
2023-01-17T12:28:46.280Z,91.60
2023-01-17T12:31:12.996Z,91.20
2023-01-17T12:33:45.737Z,91.20
2023-01-17T12:36:23.913Z,90.90
2023-01-17T12:38:50.572Z,90.90
2023-01-17T12:41:30.779Z,90.90
2023-01-17T12:44:00.699Z,90.80
2023-01-17T12:46:38.941Z,90.90
2023-01-17T12:49:41.558Z,90.80
2023-01-17T12:52:25.555Z,90.60
2023-01-17T12:54:59.117Z,90.50
2023-01-17T12:57:33.565Z,90.40
2023-01-17T13:00:08.187Z,90.40
2023-01-17T13:02:42.851Z,90.40
2023-01-17T13:05:16.087Z,90.50
2023-01-17T13:07:47.330Z,90.30
2023-01-17T13:10:22.650Z,90.40
2023-01-17T13:12:50.803Z,90.20
2023-01-17T13:15:23.845Z,90.40
2023-01-17T13:18:05.042Z,90.40
2023-01-17T13:20:50.801Z,90.40
2023-01-17T13:23:30.076Z,90.30
2023-01-17T13:25:59.865Z,90.00
2023-01-17T13:28:36.132Z,89.90
2023-01-17T13:31:26.695Z,89.70
2023-01-17T13:34:29.309Z,89.60
2023-01-17T13:37:08.102Z,89.80
2023-01-17T13:40:18.883Z,89.90
2023-01-17T13:42:55.271Z,89.60
2023-01-17T13:45:26.683Z,89.60
2023-01-17T13:48:30.187Z,89.80
2023-01-17T13:51:08.658Z,89.90
2023-01-17T13:53:35.322Z,90.00
2023-01-17T13:56:22.625Z,90.00
2023-01-17T13:58:50.386Z,90.00
2023-01-17T14:01:23.084Z,90.00
2023-01-17T14:03:52.953Z,90.20
2023-01-17T14:06:41.406Z,90.30
2023-01-17T14:09:08.137Z,90.40
2023-01-17T14:11:36.564Z,90.40
2023-01-17T14:14:43.329Z,90.30
2023-01-17T14:17:28.085Z,90.30
2023-01-17T14:20:01.779Z,90.30
2023-01-17T14:22:31.694Z,90.30
2023-01-17T14:25:12.207Z,90.20
2023-01-17T14:27:51.557Z,90.30
2023-01-17T14:30:20.246Z,90.20
2023-01-17T14:33:01.071Z,90.30
2023-01-17T14:35:54.249Z,90.30
2023-01-17T14:38:26.945Z,90.40
2023-01-17T14:40:55.214Z,90.40
2023-01-17T14:43:24.703Z,90.50
2023-01-17T14:46:04.174Z,90.60
2023-01-17T14:48:31.355Z,90.60
2023-01-17T14:51:01.375Z,90.50
2023-01-17T14:53:28.799Z,90.50
2023-01-17T14:56:02.319Z,90.50
2023-01-17T14:58:29.134Z,90.70
2023-01-17T15:01:00.089Z,90.80
2023-01-17T15:03:27.766Z,90.90
2023-01-17T15:05:56.195Z,91.00
2023-01-17T15:08:31.544Z,91.00
2023-01-17T15:11:05.290Z,91.10
2023-01-17T15:13:45.315Z,91.10
2023-01-17T15:16:20.069Z,91.20
2023-01-17T15:18:47.475Z,91.30
2023-01-17T15:21:19.267Z,91.40
2023-01-17T15:23:47.902Z,91.50
2023-01-17T15:26:20.015Z,91.50
2023-01-17T15:28:47.542Z,91.50
2023-01-17T15:31:37.841Z,91.70
2023-01-17T15:34:07.221Z,91.80
2023-01-17T15:36:34.605Z,91.80
2023-01-17T15:39:06.540Z,91.90
2023-01-17T15:41:39.652Z,92.00
2023-01-17T15:44:08.365Z,92.00
2023-01-17T15:46:44.622Z,92.10
2023-01-17T15:49:17.629Z,92.20
2023-01-17T15:51:51.121Z,92.30
2023-01-17T15:54:35.768Z,92.30
2023-01-17T15:57:02.547Z,92.30
2023-01-17T15:59:43.284Z,92.70
2023-01-17T16:02:37.005Z,92.50
2023-01-17T16:05:24.405Z,92.60
2023-01-17T16:07:53.915Z,92.70
2023-01-17T16:10:23.508Z,92.80
2023-01-17T16:12:53.026Z,92.90
2023-01-17T16:15:20.350Z,93.00
2023-01-17T16:17:50.231Z,93.10
2023-01-17T16:20:25.382Z,93.60
2023-01-17T16:22:52.449Z,93.50
2023-01-17T16:25:25.660Z,93.70
2023-01-17T16:27:53.449Z,93.80
2023-01-17T16:30:24.407Z,93.90
2023-01-17T16:32:51.466Z,94.10
2023-01-17T16:35:30.164Z,94.20
2023-01-17T16:38:02.353Z,94.50
2023-01-17T16:40:31.355Z,94.60
2023-01-17T16:42:59.063Z,94.80
2023-01-17T16:45:26.248Z,95.00
2023-01-17T16:47:54.344Z,95.10
2023-01-17T16:50:23.818Z,95.10
2023-01-17T16:52:54.203Z,95.30
2023-01-17T16:55:23.645Z,95.30
2023-01-17T16:57:51.779Z,95.50
2023-01-17T17:00:18.964Z,95.60
2023-01-17T17:02:50.846Z,95.80
2023-01-17T17:05:18.405Z,95.90
2023-01-17T17:07:46.279Z,96.00
2023-01-17T17:10:15.911Z,96.10
2023-01-17T17:12:43.289Z,96.20
2023-01-17T17:15:11.072Z,96.30
2023-01-17T17:17:39.362Z,96.40
2023-01-17T17:20:10.058Z,96.50
2023-01-17T17:22:36.769Z,96.70
2023-01-17T17:25:05.289Z,96.70
2023-01-17T17:27:32.273Z,96.70
2023-01-17T17:29:58.989Z,96.80
2023-01-17T17:32:25.693Z,96.90
2023-01-17T17:34:52.386Z,97.10
2023-01-17T17:37:19.729Z,97.10
2023-01-17T17:39:46.400Z,97.10
2023-01-17T17:42:13.626Z,97.20
2023-01-17T17:44:40.302Z,97.30
2023-01-17T17:47:07.042Z,97.40
2023-01-17T17:49:33.713Z,97.40
2023-01-17T17:52:05.529Z,97.60
2023-01-17T17:54:32.589Z,97.70
2023-01-17T17:56:59.613Z,97.60
2023-01-17T17:59:26.358Z,97.60
2023-01-17T18:01:53.575Z,97.60
2023-01-17T18:04:21.552Z,97.70
2023-01-17T18:06:48.383Z,97.70
2023-01-17T18:09:15.292Z,97.80
2023-01-17T18:11:43.222Z,97.90
2023-01-17T18:14:14.401Z,98.00
2023-01-17T18:16:43.621Z,98.00
2023-01-17T18:19:19.999Z,98.10
2023-01-17T18:21:46.815Z,98.20
2023-01-17T18:24:15.394Z,98.20
2023-01-17T18:26:50.942Z,98.20
2023-01-17T18:29:19.974Z,98.20
2023-01-17T18:31:52.067Z,98.30
2023-01-17T18:34:24.409Z,98.30
2023-01-17T18:36:51.935Z,98.30
2023-01-17T18:39:21.499Z,98.30
2023-01-17T18:41:49.261Z,98.30
2023-01-17T18:44:16.375Z,98.30
2023-01-17T18:46:43.508Z,98.60
2023-01-17T18:49:11.605Z,98.30
2023-01-17T18:51:38.846Z,98.20
2023-01-17T18:54:07.321Z,98.20
2023-01-17T18:56:35.446Z,98.20
2023-01-17T18:59:09.687Z,98.20
2023-01-17T19:01:36.712Z,98.20
2023-01-17T19:04:05.947Z,98.20
2023-01-17T19:06:38.784Z,98.20
2023-01-17T19:09:07.491Z,98.20
2023-01-17T19:11:35.408Z,98.20
2023-01-17T19:14:03.011Z,98.20
2023-01-17T19:16:32.055Z,98.10
2023-01-17T19:19:03.100Z,98.10
2023-01-17T19:21:30.272Z,98.10
2023-01-17T19:23:57.758Z,98.20
2023-01-17T19:26:28.303Z,98.20
2023-01-17T19:28:56.852Z,98.30
2023-01-17T19:31:26.594Z,98.10
2023-01-17T19:33:57.301Z,98.20
2023-01-17T19:36:36.124Z,98.20
2023-01-17T19:39:06.725Z,98.20
2023-01-17T19:41:36.187Z,98.50
2023-01-17T19:44:05.925Z,98.50
2023-01-17T19:46:33.654Z,98.30
2023-01-17T19:49:01.010Z,98.30
2023-01-17T19:51:28.342Z,98.40
2023-01-17T19:53:55.535Z,98.40
2023-01-17T19:56:26.418Z,98.60
2023-01-17T19:59:00.600Z,98.40
2023-01-17T20:01:30.202Z,98.40
2023-01-17T20:03:58.418Z,98.50
2023-01-17T20:06:29.146Z,98.50
2023-01-17T20:08:56.503Z,98.50
2023-01-17T20:11:27.866Z,98.50
2023-01-17T20:13:56.856Z,98.50
2023-01-17T20:16:25.160Z,98.60
2023-01-17T20:18:52.261Z,98.60
2023-01-17T20:21:24.638Z,98.60
2023-01-17T20:23:54.897Z,98.50
2023-01-17T20:26:25.248Z,98.50
2023-01-17T20:28:53.295Z,98.50
2023-01-17T20:31:25.341Z,98.50
2023-01-17T20:33:54.344Z,98.60
2023-01-17T20:36:23.847Z,98.70
2023-01-17T20:38:51.574Z,98.70
2023-01-17T20:41:33.519Z,98.70
2023-01-17T20:44:00.912Z,98.70
2023-01-17T20:46:35.685Z,98.70
2023-01-17T20:49:05.466Z,98.60
2023-01-17T20:51:38.335Z,98.60
2023-01-17T20:54:06.646Z,99.00
2023-01-17T20:56:37.724Z,98.70
2023-01-17T20:59:07.669Z,98.80
2023-01-17T21:01:35.088Z,98.80
2023-01-17T21:04:03.162Z,98.70
2023-01-17T21:06:30.321Z,98.60
2023-01-17T21:08:57.098Z,98.70
2023-01-17T21:11:27.504Z,98.70
2023-01-17T21:13:54.475Z,98.70
2023-01-17T21:16:23.041Z,98.80
2023-01-17T21:18:51.496Z,98.80
2023-01-17T21:21:22.135Z,98.80
2023-01-17T21:23:50.778Z,98.70
2023-01-17T21:26:18.945Z,98.70
2023-01-17T21:28:47.482Z,98.70
2023-01-17T21:31:23.162Z,98.80
2023-01-17T21:33:51.333Z,98.90
2023-01-17T21:36:20.674Z,98.80
2023-01-17T21:38:49.744Z,98.90
2023-01-17T21:41:16.575Z,98.90
2023-01-17T21:43:44.818Z,99.00
2023-01-17T21:46:11.787Z,99.00
2023-01-17T21:48:40.618Z,99.00
2023-01-17T21:51:08.522Z,99.10
2023-01-17T21:53:39.590Z,99.10
2023-01-17T21:56:28.890Z,99.10
2023-01-17T21:58:57.256Z,99.10
2023-01-17T22:01:27.585Z,99.10
2023-01-17T22:03:57.018Z,99.10
2023-01-17T22:06:27.540Z,99.10
2023-01-17T22:08:54.632Z,99.20
2023-01-17T22:11:23.645Z,99.30
2023-01-17T22:13:50.708Z,99.30
2023-01-17T22:16:19.979Z,99.30
2023-01-17T22:18:47.104Z,99.30
2023-01-17T22:21:23.231Z,99.30
2023-01-17T22:23:52.199Z,99.40
2023-01-17T22:26:20.470Z,99.40
2023-01-17T22:28:47.355Z,99.40
2023-01-17T22:31:20.808Z,99.40
2023-01-17T22:33:52.070Z,99.50
2023-01-17T22:36:20.137Z,99.50
2023-01-17T22:38:47.034Z,99.50
2023-01-17T22:41:17.288Z,99.50
2023-01-17T22:43:47.015Z,99.80
2023-01-17T22:46:16.221Z,99.40
2023-01-17T22:48:43.137Z,99.40
2023-01-17T22:51:12.990Z,99.30
2023-01-17T22:53:47.840Z,99.30
2023-01-17T22:56:17.233Z,99.30
2023-01-17T22:58:48.769Z,99.40
2023-01-17T23:01:24.340Z,99.40
2023-01-17T23:03:54.151Z,99.40
2023-01-17T23:06:27.313Z,99.50
2023-01-17T23:08:55.794Z,99.50
2023-01-17T23:11:38.851Z,99.60
2023-01-17T23:14:18.583Z,99.60
2023-01-17T23:17:06.848Z,99.60
2023-01-17T23:19:46.590Z,99.60
2023-01-17T23:22:28.118Z,99.60
2023-01-17T23:25:01.165Z,99.70
2023-01-17T23:27:50.563Z,99.60
2023-01-17T23:30:25.182Z,99.60
2023-01-17T23:32:54.999Z,99.70
2023-01-17T23:35:24.482Z,99.70
2023-01-17T23:38:09.612Z,99.80
2023-01-17T23:40:38.760Z,99.70
2023-01-17T23:43:24.105Z,99.70
2023-01-17T23:45:52.596Z,99.70
2023-01-17T23:48:20.667Z,99.70
2023-01-17T23:50:48.507Z,99.80
2023-01-17T23:53:24.518Z,99.90
2023-01-17T23:55:53.530Z,99.90
2023-01-17T23:58:23.526Z,99.90
